sensor_id;sensor_type;location;lat;lon;timestamp;pressure;altitude;pressure_sealevel;temperature;humidity
6565;BME280;3316;44.118;27.258;2023-04-16T00:00:36;100783.38;;;14.10;100.00
6565;BME280;3316;44.118;27.258;2023-04-16T00:03:01;100788.84;;;14.03;100.00
6565;BME280;3316;44.118;27.258;2023-04-16T00:05:27;100779.34;;;13.93;100.00
6565;BME280;3316;44.118;27.258;2023-04-16T00:07:52;100783.84;;;13.89;100.00
6565;BME280;3316;44.118;27.258;2023-04-16T00:10:18;100776.16;;;13.79;100.00
6565;BME280;3316;44.118;27.258;2023-04-16T00:12:45;100778.00;;;13.74;100.00
6565;BME280;3316;44.118;27.258;2023-04-16T00:15:10;100778.25;;;13.63;100.00
6565;BME280;3316;44.118;27.258;2023-04-16T00:17:35;100784.25;;;13.70;100.00
6565;BME280;3316;44.118;27.258;2023-04-16T00:20:01;100778.09;;;13.71;100.00
6565;BME280;3316;44.118;27.258;2023-04-16T00:22:27;100778.00;;;13.74;100.00
6565;BME280;3316;44.118;27.258;2023-04-16T00:24:52;100790.19;;;13.82;100.00
6565;BME280;3316;44.118;27.258;2023-04-16T00:27:18;100791.81;;;13.88;100.00
6565;BME280;3316;44.118;27.258;2023-04-16T00:29:43;100785.50;;;13.95;100.00
6565;BME280;3316;44.118;27.258;2023-04-16T00:32:09;100793.50;;;13.92;100.00
6565;BME280;3316;44.118;27.258;2023-04-16T00:34:34;100777.84;;;13.83;100.00
6565;BME280;3316;44.118;27.258;2023-04-16T00:37:00;100770.72;;;13.85;100.00
6565;BME280;3316;44.118;27.258;2023-04-16T00:39:25;100780.53;;;13.80;100.00
6565;BME280;3316;44.118;27.258;2023-04-16T00:41:51;100794.72;;;13.76;100.00
6565;BME280;3316;44.118;27.258;2023-04-16T00:44:16;100789.59;;;13.68;100.00
6565;BME280;3316;44.118;27.258;2023-04-16T00:46:42;100780.19;;;13.54;100.00
6565;BME280;3316;44.118;27.258;2023-04-16T00:49:08;100790.91;;;13.46;100.00
6565;BME280;3316;44.118;27.258;2023-04-16T00:51:34;100783.09;;;13.42;100.00
6565;BME280;3316;44.118;27.258;2023-04-16T00:54:01;100788.47;;;13.37;100.00
6565;BME280;3316;44.118;27.258;2023-04-16T00:56:27;100778.88;;;13.31;100.00
6565;BME280;3316;44.118;27.258;2023-04-16T00:58:56;100766.63;;;13.27;100.00
6565;BME280;3316;44.118;27.258;2023-04-16T01:01:21;100766.53;;;13.32;100.00
6565;BME280;3316;44.118;27.258;2023-04-16T01:03:48;100761.31;;;13.29;100.00
6565;BME280;3316;44.118;27.258;2023-04-16T01:06:15;100773.47;;;13.37;100.00
6565;BME280;3316;44.118;27.258;2023-04-16T01:08:42;100762.00;;;13.38;100.00
6565;BME280;3316;44.118;27.258;2023-04-16T01:11:09;100775.06;;;13.48;100.00
6565;BME280;3316;44.118;27.258;2023-04-16T01:13:35;100776.81;;;13.47;100.00
6565;BME280;3316;44.118;27.258;2023-04-16T01:16:05;100777.69;;;13.48;100.00
6565;BME280;3316;44.118;27.258;2023-04-16T01:18:32;100762.91;;;13.37;100.00
6565;BME280;3316;44.118;27.258;2023-04-16T01:20:57;100754.97;;;13.36;100.00
6565;BME280;3316;44.118;27.258;2023-04-16T01:23:22;100765.31;;;13.50;100.00
6565;BME280;3316;44.118;27.258;2023-04-16T01:25:48;100753.97;;;13.43;100.00
6565;BME280;3316;44.118;27.258;2023-04-16T01:28:13;100757.50;;;13.44;100.00
6565;BME280;3316;44.118;27.258;2023-04-16T01:30:39;100768.97;;;13.43;100.00
6565;BME280;3316;44.118;27.258;2023-04-16T01:33:04;100752.38;;;13.34;100.00
6565;BME280;3316;44.118;27.258;2023-04-16T01:35:31;100747.16;;;13.31;100.00
6565;BME280;3316;44.118;27.258;2023-04-16T01:37:56;100760.31;;;13.34;100.00
6565;BME280;3316;44.118;27.258;2023-04-16T01:40:22;100754.97;;;13.37;100.00
6565;BME280;3316;44.118;27.258;2023-04-16T01:42:47;100755.63;;;13.49;100.00
6565;BME280;3316;44.118;27.258;2023-04-16T01:45:13;100759.03;;;13.54;100.00
6565;BME280;3316;44.118;27.258;2023-04-16T01:47:39;100762.44;;;13.60;100.00
6565;BME280;3316;44.118;27.258;2023-04-16T01:50:04;100766.16;;;13.52;100.00
6565;BME280;3316;44.118;27.258;2023-04-16T01:52:30;100745.00;;;13.52;100.00
6565;BME280;3316;44.118;27.258;2023-04-16T01:54:56;100774.00;;;13.55;100.00
6565;BME280;3316;44.118;27.258;2023-04-16T01:57:21;100753.97;;;13.43;100.00
6565;BME280;3316;44.118;27.258;2023-04-16T01:59:47;100740.13;;;13.32;100.00
6565;BME280;3316;44.118;27.258;2023-04-16T02:02:14;100768.84;;;13.49;100.00
6565;BME280;3316;44.118;27.258;2023-04-16T02:04:41;100749.47;;;13.48;100.00
6565;BME280;3316;44.118;27.258;2023-04-16T02:07:08;100758.31;;;13.47;100.00
6565;BME280;3316;44.118;27.258;2023-04-16T02:09:35;100759.19;;;13.48;100.00
6565;BME280;3316;44.118;27.258;2023-04-16T02:12:00;100751.34;;;13.43;100.00
6565;BME280;3316;44.118;27.258;2023-04-16T02:14:29;100751.25;;;13.48;100.00
6565;BME280;3316;44.118;27.258;2023-04-16T02:16:55;100740.81;;;13.42;100.00
6565;BME280;3316;44.118;27.258;2023-04-16T02:19:21;100745.13;;;13.44;100.00
6565;BME280;3316;44.118;27.258;2023-04-16T02:21:47;100744.28;;;13.42;100.00
6565;BME280;3316;44.118;27.258;2023-04-16T02:24:12;100735.69;;;13.34;100.00
6565;BME280;3316;44.118;27.258;2023-04-16T02:26:38;100732.88;;;13.40;100.00
6565;BME280;3316;44.118;27.258;2023-04-16T02:29:03;100733.72;;;13.42;100.00
6565;BME280;3316;44.118;27.258;2023-04-16T02:31:29;100732.81;;;13.45;100.00
6565;BME280;3316;44.118;27.258;2023-04-16T02:33:54;100739.72;;;13.50;100.00
6565;BME280;3316;44.118;27.258;2023-04-16T02:36:20;100689.28;;;13.19;100.00
6565;BME280;3316;44.118;27.258;2023-04-16T02:38:45;100739.72;;;13.52;100.00
6565;BME280;3316;44.118;27.258;2023-04-16T02:41:11;100716.09;;;13.43;100.00
6565;BME280;3316;44.118;27.258;2023-04-16T02:43:36;100733.44;;;13.57;100.00
6565;BME280;3316;44.118;27.258;2023-04-16T02:46:02;100734.22;;;13.61;100.00
6565;BME280;3316;44.118;27.258;2023-04-16T02:48:27;100716.06;;;13.46;100.00
6565;BME280;3316;44.118;27.258;2023-04-16T02:50:53;100744.97;;;13.53;100.00
6565;BME280;3316;44.118;27.258;2023-04-16T02:53:18;100721.38;;;13.43;100.00
6565;BME280;3316;44.118;27.258;2023-04-16T02:55:50;100731.00;;;13.47;100.00
6565;BME280;3316;44.118;27.258;2023-04-16T02:58:23;100735.28;;;13.52;100.00
6565;BME280;3316;44.118;27.258;2023-04-16T03:00:49;100737.94;;;13.52;100.00
6565;BME280;3316;44.118;27.258;2023-04-16T03:03:15;100734.47;;;13.49;100.00
6565;BME280;3316;44.118;27.258;2023-04-16T03:05:40;100730.16;;;13.45;100.00
6565;BME280;3316;44.118;27.258;2023-04-16T03:08:06;100731.84;;;13.49;100.00
6565;BME280;3316;44.118;27.258;2023-04-16T03:10:31;100741.50;;;13.51;100.00
6565;BME280;3316;44.118;27.258;2023-04-16T03:12:57;100741.41;;;13.54;100.00
6565;BME280;3316;44.118;27.258;2023-04-16T03:15:23;100748.41;;;13.57;100.00
6565;BME280;3316;44.118;27.258;2023-04-16T03:17:49;100744.84;;;13.58;100.00
6565;BME280;3316;44.118;27.258;2023-04-16T03:20:14;100748.22;;;13.66;100.00
6565;BME280;3316;44.118;27.258;2023-04-16T03:22:41;100745.56;;;13.66;100.00
6565;BME280;3316;44.118;27.258;2023-04-16T03:25:07;100751.72;;;13.66;100.00
6565;BME280;3316;44.118;27.258;2023-04-16T03:27:33;100749.06;;;13.68;100.00
6565;BME280;3316;44.118;27.258;2023-04-16T03:29:59;100750.81;;;13.69;100.00
6565;BME280;3316;44.118;27.258;2023-04-16T03:32:25;100732.56;;;13.57;100.00
6565;BME280;3316;44.118;27.258;2023-04-16T03:34:50;100749.00;;;13.69;100.00
6565;BME280;3316;44.118;27.258;2023-04-16T03:37:16;100744.56;;;13.73;100.00
6565;BME280;3316;44.118;27.258;2023-04-16T03:39:41;100740.94;;;13.77;100.00
6565;BME280;3316;44.118;27.258;2023-04-16T03:42:07;100753.03;;;13.87;100.00
6565;BME280;3316;44.118;27.258;2023-04-16T03:44:33;100726.22;;;13.64;100.00
6565;BME280;3316;44.118;27.258;2023-04-16T03:46:58;100745.19;;;13.84;100.00
6565;BME280;3316;44.118;27.258;2023-04-16T03:49:24;100746.91;;;13.85;100.00
6565;BME280;3316;44.118;27.258;2023-04-16T03:51:49;100725.09;;;13.75;100.00
6565;BME280;3316;44.118;27.258;2023-04-16T03:54:15;100758.06;;;13.99;100.00
6565;BME280;3316;44.118;27.258;2023-04-16T03:56:40;100757.19;;;14.00;100.00
6565;BME280;3316;44.118;27.258;2023-04-16T03:59:06;100765.59;;;14.17;100.00
6565;BME280;3316;44.118;27.258;2023-04-16T04:01:31;100761.88;;;14.25;100.00
6565;BME280;3316;44.118;27.258;2023-04-16T04:03:57;100757.66;;;14.17;100.00
6565;BME280;3316;44.118;27.258;2023-04-16T04:06:23;100767.31;;;14.19;100.00
6565;BME280;3316;44.118;27.258;2023-04-16T04:08:48;100758.72;;;14.10;100.00
6565;BME280;3316;44.118;27.258;2023-04-16T04:11:13;100759.66;;;14.07;100.00
6565;BME280;3316;44.118;27.258;2023-04-16T04:13:39;100753.44;;;14.10;100.00
6565;BME280;3316;44.118;27.258;2023-04-16T04:16:05;100720.31;;;13.91;100.00
6565;BME280;3316;44.118;27.258;2023-04-16T04:18:30;100768.25;;;14.17;100.00
6565;BME280;3316;44.118;27.258;2023-04-16T04:20:56;100774.28;;;14.22;100.00
6565;BME280;3316;44.118;27.258;2023-04-16T04:23:22;100778.69;;;14.23;100.00
6565;BME280;3316;44.118;27.258;2023-04-16T04:25:47;100767.41;;;14.15;100.00
6565;BME280;3316;44.118;27.258;2023-04-16T04:28:13;100771.81;;;14.16;100.00
6565;BME280;3316;44.118;27.258;2023-04-16T04:30:38;100779.75;;;14.16;100.00
6565;BME280;3316;44.118;27.258;2023-04-16T04:33:04;100775.25;;;14.18;100.00
6565;BME280;3316;44.118;27.258;2023-04-16T04:35:29;100774.25;;;14.25;100.00
6565;BME280;3316;44.118;27.258;2023-04-16T04:37:55;100772.44;;;14.27;100.00
6565;BME280;3316;44.118;27.258;2023-04-16T04:40:20;100778.38;;;14.38;100.00
6565;BME280;3316;44.118;27.258;2023-04-16T04:42:46;100780.13;;;14.39;100.00
6565;BME280;3316;44.118;27.258;2023-04-16T04:45:11;100784.31;;;14.48;100.00
6565;BME280;3316;44.118;27.258;2023-04-16T04:47:37;100739.78;;;14.28;100.00
6565;BME280;3316;44.118;27.258;2023-04-16T04:50:03;100788.44;;;14.59;100.00
6565;BME280;3316;44.118;27.258;2023-04-16T04:52:28;100785.44;;;14.73;100.00
6565;BME280;3316;44.118;27.258;2023-04-16T04:54:53;100796.78;;;14.79;100.00
6565;BME280;3316;44.118;27.258;2023-04-16T04:57:19;100794.72;;;14.90;100.00
6565;BME280;3316;44.118;27.258;2023-04-16T04:59:44;100766.25;;;14.98;100.00
6565;BME280;3316;44.118;27.258;2023-04-16T05:02:10;100794.44;;;15.35;100.00
6565;BME280;3316;44.118;27.258;2023-04-16T05:04:35;100814.88;;;15.63;100.00
6565;BME280;3316;44.118;27.258;2023-04-16T05:07:01;100794.38;;;15.70;100.00
6565;BME280;3316;44.118;27.258;2023-04-16T05:09:26;100813.16;;;15.93;100.00
6565;BME280;3316;44.118;27.258;2023-04-16T05:11:52;100811.50;;;16.18;100.00
6565;BME280;3316;44.118;27.258;2023-04-16T05:14:18;100763.66;;;15.90;100.00
6565;BME280;3316;44.118;27.258;2023-04-16T05:16:43;100818.50;;;16.50;100.00
6565;BME280;3316;44.118;27.258;2023-04-16T05:19:08;100801.59;;;16.52;100.00
6565;BME280;3316;44.118;27.258;2023-04-16T05:21:34;100823.47;;;16.60;100.00
6565;BME280;3316;44.118;27.258;2023-04-16T05:24:00;100817.13;;;16.64;100.00
6565;BME280;3316;44.118;27.258;2023-04-16T05:26:25;100827.25;;;16.79;100.00
6565;BME280;3316;44.118;27.258;2023-04-16T05:28:50;100816.19;;;16.67;100.00
6565;BME280;3316;44.118;27.258;2023-04-16T05:31:16;100823.94;;;16.99;100.00
6565;BME280;3316;44.118;27.258;2023-04-16T05:33:41;100809.47;;;17.08;100.00
6565;BME280;3316;44.118;27.258;2023-04-16T05:36:07;100829.00;;;17.59;100.00
6565;BME280;3316;44.118;27.258;2023-04-16T05:38:32;100819.50;;;17.75;100.00
6565;BME280;3316;44.118;27.258;2023-04-16T05:40:57;100823.28;;;17.93;100.00
6565;BME280;3316;44.118;27.258;2023-04-16T05:43:23;100824.88;;;17.73;100.00
6565;BME280;3316;44.118;27.258;2023-04-16T05:45:48;100825.06;;;18.38;100.00
6565;BME280;3316;44.118;27.258;2023-04-16T05:48:14;100823.00;;;18.90;100.00
6565;BME280;3316;44.118;27.258;2023-04-16T05:50:40;100829.91;;;19.15;100.00
6565;BME280;3316;44.118;27.258;2023-04-16T05:53:07;100825.34;;;19.39;100.00
6565;BME280;3316;44.118;27.258;2023-04-16T05:55:33;100821.28;;;19.50;100.00
6565;BME280;3316;44.118;27.258;2023-04-16T05:58:00;100821.97;;;19.76;100.00
6565;BME280;3316;44.118;27.258;2023-04-16T06:00:28;100822.78;;;20.15;100.00
6565;BME280;3316;44.118;27.258;2023-04-16T06:02:54;100821.25;;;20.84;100.00
6565;BME280;3316;44.118;27.258;2023-04-16T06:05:19;100838.09;;;21.21;100.00
6565;BME280;3316;44.118;27.258;2023-04-16T06:07:46;100830.47;;;21.14;100.00
6565;BME280;3316;44.118;27.258;2023-04-16T06:10:11;100830.91;;;21.05;100.00
6565;BME280;3316;44.118;27.258;2023-04-16T06:12:36;100828.66;;;21.49;100.00
6565;BME280;3316;44.118;27.258;2023-04-16T06:15:02;100838.81;;;21.25;100.00
6565;BME280;3316;44.118;27.258;2023-04-16T06:17:28;100841.59;;;20.69;100.00
6565;BME280;3316;44.118;27.258;2023-04-16T06:19:53;100827.22;;;20.34;100.00
6565;BME280;3316;44.118;27.258;2023-04-16T06:22:19;100841.59;;;20.51;100.00
6565;BME280;3316;44.118;27.258;2023-04-16T06:24:44;100850.66;;;20.09;100.00
6565;BME280;3316;44.118;27.258;2023-04-16T06:27:10;100844.56;;;19.67;100.00
6565;BME280;3316;44.118;27.258;2023-04-16T06:29:35;100852.38;;;19.10;100.00
6565;BME280;3316;44.118;27.258;2023-04-16T06:32:01;100851.47;;;18.89;100.00
6565;BME280;3316;44.118;27.258;2023-04-16T06:34:27;100862.75;;;18.96;100.00
6565;BME280;3316;44.118;27.258;2023-04-16T06:36:53;100846.06;;;18.69;100.00
6565;BME280;3316;44.118;27.258;2023-04-16T06:39:19;100865.91;;;18.62;100.00
6565;BME280;3316;44.118;27.258;2023-04-16T06:41:46;100856.47;;;18.53;100.00
6565;BME280;3316;44.118;27.258;2023-04-16T06:44:12;100817.00;;;18.40;100.00
6565;BME280;3316;44.118;27.258;2023-04-16T06:46:37;100852.38;;;18.88;100.00
6565;BME280;3316;44.118;27.258;2023-04-16T06:49:03;100858.44;;;19.35;100.00
6565;BME280;3316;44.118;27.258;2023-04-16T06:51:28;100861.53;;;19.24;100.00
6565;BME280;3316;44.118;27.258;2023-04-16T06:53:54;100849.25;;;19.42;100.00
6565;BME280;3316;44.118;27.258;2023-04-16T06:56:19;100855.47;;;20.01;100.00
6565;BME280;3316;44.118;27.258;2023-04-16T06:58:45;100861.78;;;20.93;100.00
6565;BME280;3316;44.118;27.258;2023-04-16T07:01:10;100858.44;;;21.07;100.00
6565;BME280;3316;44.118;27.258;2023-04-16T07:03:36;100838.91;;;20.51;100.00
6565;BME280;3316;44.118;27.258;2023-04-16T07:06:02;100853.69;;;19.82;100.00
6565;BME280;3316;44.118;27.258;2023-04-16T07:08:27;100803.69;;;19.05;100.00
6565;BME280;3316;44.118;27.258;2023-04-16T07:10:53;100847.66;;;19.16;100.00
6565;BME280;3316;44.118;27.258;2023-04-16T07:13:19;100857.22;;;19.00;100.00
6565;BME280;3316;44.118;27.258;2023-04-16T07:15:44;100860.69;;;18.81;100.00
6565;BME280;3316;44.118;27.258;2023-04-16T07:18:10;100856.38;;;18.56;100.00
6565;BME280;3316;44.118;27.258;2023-04-16T07:20:35;100845.22;;;18.45;100.00
6565;BME280;3316;44.118;27.258;2023-04-16T07:23:01;100856.41;;;18.55;100.00
6565;BME280;3316;44.118;27.258;2023-04-16T07:25:26;100856.78;;;18.67;100.00
6565;BME280;3316;44.118;27.258;2023-04-16T07:27:52;100853.72;;;18.78;100.00
6565;BME280;3316;44.118;27.258;2023-04-16T07:30:17;100856.78;;;18.67;100.00
6565;BME280;3316;44.118;27.258;2023-04-16T07:32:43;100837.44;;;18.84;100.00
6565;BME280;3316;44.118;27.258;2023-04-16T07:35:08;100850.91;;;19.03;100.00
6565;BME280;3316;44.118;27.258;2023-04-16T07:37:34;100846.72;;;19.17;100.00
6565;BME280;3316;44.118;27.258;2023-04-16T07:39:59;100834.97;;;19.01;100.00
6565;BME280;3316;44.118;27.258;2023-04-16T07:42:26;100826.97;;;18.80;100.00
6565;BME280;3316;44.118;27.258;2023-04-16T07:44:52;100848.47;;;18.97;100.00
6565;BME280;3316;44.118;27.258;2023-04-16T07:47:17;100846.31;;;18.85;100.00
6565;BME280;3316;44.118;27.258;2023-04-16T07:49:43;100849.69;;;18.90;100.00
6565;BME280;3316;44.118;27.258;2023-04-16T07:52:08;100843.28;;;18.72;100.00
6565;BME280;3316;44.118;27.258;2023-04-16T07:54:34;100838.31;;;18.63;100.00
6565;BME280;3316;44.118;27.258;2023-04-16T07:56:59;100842.59;;;18.67;100.00
6565;BME280;3316;44.118;27.258;2023-04-16T07:59:25;100853.31;;;18.65;100.00
6565;BME280;3316;44.118;27.258;2023-04-16T08:01:53;100846.31;;;17.94;100.00
6565;BME280;3316;44.118;27.258;2023-04-16T08:04:19;100828.72;;;17.66;100.00
6565;BME280;3316;44.118;27.258;2023-04-16T08:06:49;100824.91;;;17.49;100.00
6565;BME280;3316;44.118;27.258;2023-04-16T08:09:15;100823.28;;;17.19;100.00
6565;BME280;3316;44.118;27.258;2023-04-16T08:11:41;100818.13;;;17.14;100.00
6565;BME280;3316;44.118;27.258;2023-04-16T08:14:06;100833.81;;;17.22;100.00
6565;BME280;3316;44.118;27.258;2023-04-16T08:16:32;100850.69;;;17.21;100.00
6565;BME280;3316;44.118;27.258;2023-04-16T08:18:57;100853.94;;;17.29;100.00
6565;BME280;3316;44.118;27.258;2023-04-16T08:21:25;100854.91;;;17.26;100.00
6565;BME280;3316;44.118;27.258;2023-04-16T08:23:52;100881.22;;;16.81;100.00
6565;BME280;3316;44.118;27.258;2023-04-16T08:26:18;100906.31;;;16.13;100.00
6565;BME280;3316;44.118;27.258;2023-04-16T08:28:43;100902.25;;;15.69;100.00
6565;BME280;3316;44.118;27.258;2023-04-16T08:31:08;100904.34;;;15.22;100.00
6565;BME280;3316;44.118;27.258;2023-04-16T08:33:34;100895.84;;;15.09;100.00
6565;BME280;3316;44.118;27.258;2023-04-16T08:35:59;100854.75;;;14.91;100.00
6565;BME280;3316;44.118;27.258;2023-04-16T08:38:25;100844.38;;;14.82;100.00
6565;BME280;3316;44.118;27.258;2023-04-16T08:40:51;100831.66;;;14.96;100.00
6565;BME280;3316;44.118;27.258;2023-04-16T08:43:20;100831.94;;;15.19;100.00
6565;BME280;3316;44.118;27.258;2023-04-16T08:45:48;100802.31;;;15.38;100.00
6565;BME280;3316;44.118;27.258;2023-04-16T08:48:13;100825.59;;;15.91;100.00
6565;BME280;3316;44.118;27.258;2023-04-16T08:50:40;100825.66;;;16.17;100.00
6565;BME280;3316;44.118;27.258;2023-04-16T08:53:06;100814.66;;;16.58;100.00
6565;BME280;3316;44.118;27.258;2023-04-16T08:55:37;100815.72;;;16.80;100.00
6565;BME280;3316;44.118;27.258;2023-04-16T08:58:08;100824.53;;;17.33;100.00
6565;BME280;3316;44.118;27.258;2023-04-16T09:00:36;100827.91;;;17.88;100.00
6565;BME280;3316;44.118;27.258;2023-04-16T09:03:02;100807.03;;;18.46;100.00
6565;BME280;3316;44.118;27.258;2023-04-16T09:05:28;100816.09;;;19.06;100.00
6565;BME280;3316;44.118;27.258;2023-04-16T09:07:55;100825.84;;;19.07;100.00
6565;BME280;3316;44.118;27.258;2023-04-16T09:10:20;100847.94;;;18.89;100.00
6565;BME280;3316;44.118;27.258;2023-04-16T09:12:46;100830.78;;;19.16;100.00
6565;BME280;3316;44.118;27.258;2023-04-16T09:15:12;100837.63;;;19.43;100.00
6565;BME280;3316;44.118;27.258;2023-04-16T09:17:38;100786.88;;;19.44;100.00
6565;BME280;3316;44.118;27.258;2023-04-16T09:20:06;100829.78;;;19.99;100.00
6565;BME280;3316;44.118;27.258;2023-04-16T09:22:34;100822.59;;;20.19;100.00
6565;BME280;3316;44.118;27.258;2023-04-16T09:24:59;100831.66;;;20.35;100.00
6565;BME280;3316;44.118;27.258;2023-04-16T09:27:25;100823.69;;;20.53;100.00
6565;BME280;3316;44.118;27.258;2023-04-16T09:29:51;100829.38;;;20.64;100.00
6565;BME280;3316;44.118;27.258;2023-04-16T09:32:19;100823.19;;;20.45;100.00
6565;BME280;3316;44.118;27.258;2023-04-16T09:34:56;100834.59;;;20.29;100.00
6565;BME280;3316;44.118;27.258;2023-04-16T09:37:23;100829.41;;;20.26;100.00
6565;BME280;3316;44.118;27.258;2023-04-16T09:42:25;100819.44;;;20.30;100.00
6565;BME280;3316;44.118;27.258;2023-04-16T09:44:51;100824.88;;;20.08;100.00
6565;BME280;3316;44.118;27.258;2023-04-16T09:47:17;100828.47;;;20.07;100.00
6565;BME280;3316;44.118;27.258;2023-04-16T09:49:43;100826.47;;;20.12;100.00
6565;BME280;3316;44.118;27.258;2023-04-16T09:52:17;100811.13;;;19.97;100.00
6565;BME280;3316;44.118;27.258;2023-04-16T09:54:47;100814.88;;;19.54;100.00
6565;BME280;3316;44.118;27.258;2023-04-16T09:57:16;100812.81;;;19.41;100.00
6565;BME280;3316;44.118;27.258;2023-04-16T09:59:42;100792.34;;;19.41;100.00
6565;BME280;3316;44.118;27.258;2023-04-16T10:02:07;100811.53;;;19.70;100.00
6565;BME280;3316;44.118;27.258;2023-04-16T10:04:50;100798.22;;;19.88;100.00
6565;BME280;3316;44.118;27.258;2023-04-16T10:07:16;100807.09;;;20.07;100.00
6565;BME280;3316;44.118;27.258;2023-04-16T10:09:42;100804.72;;;20.40;100.00
6565;BME280;3316;44.118;27.258;2023-04-16T10:12:07;100803.50;;;20.64;100.00
6565;BME280;3316;44.118;27.258;2023-04-16T10:14:33;100792.41;;;20.90;100.00
6565;BME280;3316;44.118;27.258;2023-04-16T10:16:59;100791.47;;;21.08;100.00
6565;BME280;3316;44.118;27.258;2023-04-16T10:19:26;100809.59;;;21.38;100.00
6565;BME280;3316;44.118;27.258;2023-04-16T10:21:52;100783.28;;;21.46;100.00
6565;BME280;3316;44.118;27.258;2023-04-16T10:24:17;100787.66;;;21.81;100.00
6565;BME280;3316;44.118;27.258;2023-04-16T10:26:43;100792.81;;;21.51;100.00
6565;BME280;3316;44.118;27.258;2023-04-16T10:29:12;100795.03;;;21.26;100.00
6565;BME280;3316;44.118;27.258;2023-04-16T10:31:38;100804.88;;;21.43;100.00
6565;BME280;3316;44.118;27.258;2023-04-16T10:34:06;100804.63;;;21.13;100.00
6565;BME280;3316;44.118;27.258;2023-04-16T10:36:36;100789.56;;;20.93;100.00
6565;BME280;3316;44.118;27.258;2023-04-16T10:39:02;100789.63;;;20.75;100.00
6565;BME280;3316;44.118;27.258;2023-04-16T10:41:27;100775.47;;;20.73;100.00
6565;BME280;3316;44.118;27.258;2023-04-16T10:44:03;100812.41;;;20.65;100.00
6565;BME280;3316;44.118;27.258;2023-04-16T10:46:32;100800.53;;;20.70;100.00
6565;BME280;3316;44.118;27.258;2023-04-16T10:49:02;100805.72;;;20.37;100.00
6565;BME280;3316;44.118;27.258;2023-04-16T10:51:36;100786.50;;;20.29;100.00
6565;BME280;3316;44.118;27.258;2023-04-16T10:56:30;100759.75;;;19.92;100.00
6565;BME280;3316;44.118;27.258;2023-04-16T10:58:56;100782.88;;;19.93;100.00
6565;BME280;3316;44.118;27.258;2023-04-16T11:01:32;100779.72;;;19.84;100.00
6565;BME280;3316;44.118;27.258;2023-04-16T11:15:01;100712.53;;;19.74;100.00
6565;BME280;3316;44.118;27.258;2023-04-16T11:17:30;100724.53;;;19.84;100.00
6565;BME280;3316;44.118;27.258;2023-04-16T11:19:56;100727.13;;;20.04;100.00
6565;BME280;3316;44.118;27.258;2023-04-16T11:22:21;100743.25;;;20.40;100.00
6565;BME280;3316;44.118;27.258;2023-04-16T11:24:53;100750.78;;;20.49;100.00
6565;BME280;3316;44.118;27.258;2023-04-16T11:27:19;100739.34;;;20.64;100.00
6565;BME280;3316;44.118;27.258;2023-04-16T11:29:44;100740.91;;;20.32;100.00
6565;BME280;3316;44.118;27.258;2023-04-16T11:32:19;100744.06;;;20.40;100.00
6565;BME280;3316;44.118;27.258;2023-04-16T11:34:45;100735.66;;;20.12;100.00
6565;BME280;3316;44.118;27.258;2023-04-16T11:37:11;100742.72;;;20.13;100.00
6565;BME280;3316;44.118;27.258;2023-04-16T11:39:52;100737.34;;;19.76;100.00
6565;BME280;3316;44.118;27.258;2023-04-16T11:42:19;100725.97;;;19.73;100.00
6565;BME280;3316;44.118;27.258;2023-04-16T11:44:45;100723.31;;;19.52;100.00
6565;BME280;3316;44.118;27.258;2023-04-16T11:47:10;100729.69;;;19.50;100.00
6565;BME280;3316;44.118;27.258;2023-04-16T11:49:38;100729.56;;;19.33;100.00
6565;BME280;3316;44.118;27.258;2023-04-16T11:52:03;100721.56;;;19.33;100.00
6565;BME280;3316;44.118;27.258;2023-04-16T11:54:29;100731.31;;;19.34;100.00
6565;BME280;3316;44.118;27.258;2023-04-16T11:56:59;100737.38;;;19.37;100.00
6565;BME280;3316;44.118;27.258;2023-04-16T11:59:25;100726.22;;;19.28;100.00
6565;BME280;3316;44.118;27.258;2023-04-16T12:01:52;100728.88;;;19.28;100.00
6565;BME280;3316;44.118;27.258;2023-04-16T12:04:22;100722.63;;;19.09;100.00
6565;BME280;3316;44.118;27.258;2023-04-16T12:09:37;100718.63;;;18.99;100.00
6565;BME280;3316;44.118;27.258;2023-04-16T12:12:03;100718.88;;;18.93;100.00
6565;BME280;3316;44.118;27.258;2023-04-16T12:14:29;100756.22;;;18.93;100.00
6565;BME280;3316;44.118;27.258;2023-04-16T12:17:01;100753.44;;;18.96;100.00
6565;BME280;3316;44.118;27.258;2023-04-16T12:20:00;100781.69;;;19.20;100.00
6565;BME280;3316;44.118;27.258;2023-04-16T12:22:37;100788.69;;;19.02;100.00
6565;BME280;3316;44.118;27.258;2023-04-16T12:25:05;100806.63;;;18.99;100.00
6565;BME280;3316;44.118;27.258;2023-04-16T12:27:51;100808.66;;;18.92;100.00
6565;BME280;3316;44.118;27.258;2023-04-16T12:30:18;100833.44;;;18.96;100.00
6565;BME280;3316;44.118;27.258;2023-04-16T12:32:46;100839.97;;;18.44;100.00
6565;BME280;3316;44.118;27.258;2023-04-16T12:35:13;100830.34;;;17.94;100.00
6565;BME280;3316;44.118;27.258;2023-04-16T12:37:53;100829.47;;;17.44;100.00
6565;BME280;3316;44.118;27.258;2023-04-16T12:40:18;100813.44;;;17.21;100.00
6565;BME280;3316;44.118;27.258;2023-04-16T12:42:43;100803.47;;;17.03;100.00
6565;BME280;3316;44.118;27.258;2023-04-16T12:45:09;100831.22;;;16.94;100.00
6565;BME280;3316;44.118;27.258;2023-04-16T12:47:35;100836.34;;;16.72;100.00
6565;BME280;3316;44.118;27.258;2023-04-16T12:50:00;100792.19;;;16.41;100.00
6565;BME280;3316;44.118;27.258;2023-04-16T12:52:26;100835.16;;;16.55;100.00
6565;BME280;3316;44.118;27.258;2023-04-16T12:54:51;100824.63;;;16.52;100.00
6565;BME280;3316;44.118;27.258;2023-04-16T12:57:17;100809.88;;;16.42;100.00
6565;BME280;3316;44.118;27.258;2023-04-16T12:59:43;100801.97;;;16.39;100.00
6565;BME280;3316;44.118;27.258;2023-04-16T13:02:08;100779.53;;;16.21;100.00
6565;BME280;3316;44.118;27.258;2023-04-16T13:04:34;100756.94;;;16.08;100.00